Time;durP1;ratioP1;P1;durP2;ratioP2;P2;SDS_P1;SDS_P2;PMS_P1;PMS_P2;Temp;Humidity;BMP_temperature;BMP_pressure;BME280_temperature;BME280_humidity;BME280_pressure;Samples;Min_cycle;Max_cycle;Signal;HPM_P1;HPM_P2
2021/08/25 00:02:26;;;;;;;;;7.00;5.50;;;;;18.49;51.02;101885.53;6212710;22;45470;-96
2021/08/25 00:04:52;;;;;;;;;4.50;4.50;;;;;18.58;50.98;101898.38;6187753;22;47941;-96
2021/08/25 00:07:22;;;;;;;;;8.75;6.75;;;;;18.83;51.20;101947.22;6212660;22;45354;-95
2021/08/25 00:09:48;;;;;;;;;5.00;5.00;;;;;18.55;51.56;101900.50;6212838;22;45163;-96
2021/08/25 00:12:14;;;;;;;;;8.00;6.00;;;;;18.76;51.39;101930.53;6213155;22;45178;-95
2021/08/25 00:14:43;;;;;;;;;7.50;5.75;;;;;18.52;51.61;101892.56;6212824;22;46706;-95
2021/08/25 00:17:10;;;;;;;;;6.75;4.75;;;;;18.52;51.65;101884.41;6212341;22;45322;-95
2021/08/25 00:19:45;;;;;;;;;4.75;4.50;;;;;18.87;51.38;101946.00;6213000;22;45441;-96
2021/08/25 00:22:14;;;;;;;;;6.00;5.25;;;;;18.59;51.28;101905.56;6212203;22;45280;-95
2021/08/25 00:24:41;;;;;;;;;9.00;6.75;;;;;18.55;51.82;101889.59;6187208;22;47763;-95
2021/08/25 00:27:12;;;;;;;;;6.75;6.75;;;;;19.03;52.02;101979.13;6212792;22;45353;-96
2021/08/25 00:29:46;;;;;;;;;8.75;5.00;;;;;18.49;51.90;101885.53;6212806;22;45221;-96
2021/08/25 00:32:17;;;;;;;;;6.50;5.50;;;;;18.48;51.85;101878.38;6188233;22;45182;-95
2021/08/25 00:34:48;;;;;;;;;5.25;4.00;;;;;18.51;51.74;101890.84;6212750;22;47634;-96
2021/08/25 00:37:14;;;;;;;;;6.75;6.25;;;;;18.69;51.79;101921.13;6212440;22;45459;-96
2021/08/25 00:39:49;;;;;;;;;5.75;4.75;;;;;18.35;52.16;101869.47;6213027;22;45237;-96
2021/08/25 00:42:27;;;;;;;;;;;;;;;;;;;;;
2021/08/25 00:45:02;;;;;;;;;4.50;4.00;;;;;18.34;51.82;101851.44;6213403;22;75292;-95
2021/08/25 00:47:33;;;;;;;;;5.00;5.00;;;;;18.72;51.78;101924.47;6212734;22;45574;-96
2021/08/25 00:49:59;;;;;;;;;4.00;4.00;;;;;18.38;52.00;101869.22;6212175;22;45296;-96
2021/08/25 00:52:27;;;;;;;;;5.75;5.25;;;;;18.70;51.98;101914.69;6187120;22;45198;-95
2021/08/25 00:54:54;;;;;;;;;5.50;4.00;;;;;18.69;51.90;101915.69;6212309;22;46720;-95
2021/08/25 00:57:25;;;;;;;;;6.50;6.00;;;;;18.59;52.24;101910.16;6212125;22;45460;-96
2021/08/25 00:59:56;;;;;;;;;4.25;4.25;;;;;18.79;51.97;101938.44;6213086;22;45382;-96
2021/08/25 01:03:02;;;;;;;;;;;;;;;;;;;;;
2021/08/25 01:05:34;;;;;;;;;5.00;5.00;;;;;18.20;52.13;101842.53;6213059;22;74563;-96
2021/08/25 01:08:03;;;;;;;;;5.50;5.50;;;;;18.19;51.98;101845.34;6212843;22;45254;-96
2021/08/25 01:10:32;;;;;;;;;4.25;4.00;;;;;18.24;51.88;101854.84;6212817;22;45132;-95
2021/08/25 01:13:06;;;;;;;;;5.50;4.00;;;;;18.41;51.96;101882.56;6212393;22;44760;-96
2021/08/25 01:16:00;;;;;;;;;5.25;5.25;;;;;18.74;52.46;101936.06;6212345;22;46912;-96
2021/08/25 01:18:37;;;;;;;;;6.50;5.00;;;;;18.43;52.41;101895.06;6212634;22;45558;-96
2021/08/25 01:21:20;;;;;;;;;7.00;5.25;;;;;18.09;52.47;101842.53;6187235;22;45362;-96
2021/08/25 01:23:50;;;;;;;;;5.00;4.75;;;;;18.08;52.69;101841.66;6212263;22;45391;-96
2021/08/25 01:26:19;;;;;;;;;5.75;5.75;;;;;18.51;52.73;101910.75;6187132;22;47127;-96
2021/08/25 01:29:10;;;;;;;;;;;;;;;;;;;;;
2021/08/25 01:31:59;;;;;;;;;6.25;5.00;;;;;18.58;52.56;101920.13;6213170;22;68091;-96
2021/08/25 01:34:47;;;;;;;;;4.00;4.00;;;;;18.46;52.86;101897.50;6212735;22;45257;-95
2021/08/25 01:37:23;;;;;;;;;;;;;;;;;;;;;
2021/08/25 01:39:49;;;;;;;;;4.50;4.00;;;;;18.14;52.60;101854.75;6213176;22;72926;-95
2021/08/25 01:42:18;;;;;;;;;6.75;5.00;;;;;18.08;52.54;101841.66;6212913;22;45248;-95
2021/08/25 01:44:44;;;;;;;;;4.75;4.75;;;;;18.13;52.74;101846.72;6212997;22;45192;-96
2021/08/25 01:47:13;;;;;;;;;4.50;3.50;;;;;18.10;52.67;101847.81;6212618;22;46622;-96
2021/08/25 01:49:50;;;;;;;;;3.50;3.50;;;;;18.34;52.88;101892.19;6211875;22;45546;-96
2021/08/25 01:52:19;;;;;;;;;5.00;4.25;;;;;18.02;52.82;101834.00;6212555;22;45225;-95
2021/08/25 01:54:51;;;;;;;;;4.00;4.00;;;;;18.04;53.18;101842.88;6212504;22;45130;-95
2021/08/25 01:57:17;;;;;;;;;6.50;5.25;;;;;18.36;52.88;101899.25;6212212;22;46753;-95
2021/08/25 01:59:42;;;;;;;;;4.50;4.00;;;;;18.32;53.26;101887.75;6186644;22;45206;-96
2021/08/25 02:02:11;;;;;;;;;5.50;4.75;;;;;17.94;53.28;101823.69;6186961;22;45254;-95
2021/08/25 02:04:37;;;;;;;;;6.25;5.00;;;;;18.34;53.24;101886.78;6212380;22;45276;-94
2021/08/25 02:07:12;;;;;;;;;9.00;5.00;;;;;18.24;53.32;101882.03;6211647;22;46797;-95
2021/08/25 02:09:38;;;;;;;;;5.75;5.75;;;;;18.36;53.44;101892.94;6212384;22;45538;-95
2021/08/25 02:12:04;;;;;;;;;5.00;4.00;;;;;17.99;53.13;101840.53;6213718;22;45360;-95
2021/08/25 02:14:33;;;;;;;;;5.50;5.00;;;;;18.52;53.59;101923.38;6213672;22;45246;-95
2021/08/25 02:17:03;;;;;;;;;5.25;4.25;;;;;17.90;53.38;101822.22;6212979;22;46663;-95
2021/08/25 02:19:29;;;;;;;;;5.25;5.25;;;;;17.94;53.65;101829.13;6213155;22;45381;-95
2021/08/25 02:21:59;;;;;;;;;4.25;4.25;;;;;18.31;53.66;101886.03;6213377;22;45296;-96
2021/08/25 02:24:35;;;;;;;;;5.25;3.75;;;;;18.11;53.44;101859.53;6213181;22;45251;-96
2021/08/25 02:27:01;;;;;;;;;6.50;4.75;;;;;17.91;53.95;101825.78;6188014;22;46627;-96
2021/08/25 02:29:27;;;;;;;;;4.00;4.00;;;;;18.36;54.15;101903.81;6212854;22;45419;-95
2021/08/25 02:31:55;;;;;;;;;6.75;5.25;;;;;17.95;53.94;101841.75;6213068;22;45259;-95
2021/08/25 02:34:28;;;;;;;;;4.75;4.75;;;;;18.27;54.29;101898.13;6213414;22;45169;-95
2021/08/25 02:36:53;;;;;;;;;4.00;4.00;;;;;17.81;54.55;101829.22;6213646;22;46911;-94
2021/08/25 02:39:22;;;;;;;;;2.50;2.00;;;;;18.07;54.39;101863.53;6213233;22;45415;-95
2021/08/25 02:41:48;;;;;;;;;4.75;4.25;;;;;17.99;54.06;101854.09;6213756;22;45357;-95
2021/08/25 02:44:22;;;;;;;;;5.75;4.25;;;;;17.96;54.64;101856.19;6213408;22;45110;-96
2021/08/25 02:46:51;;;;;;;;;3.75;3.75;;;;;18.06;54.08;101875.38;6212863;22;47099;-96
2021/08/25 02:49:16;;;;;;;;;5.25;5.25;;;;;17.69;54.80;101819.34;6187814;22;45655;-95
2021/08/25 02:51:42;;;;;;;;;6.00;5.00;;;;;17.84;54.41;101841.69;6214053;22;45301;-95
2021/08/25 02:54:08;;;;;;;;;5.00;5.00;;;;;17.89;54.36;101852.19;6188451;22;45459;-96
2021/08/25 02:56:33;;;;;;;;;4.00;4.00;;;;;17.86;54.93;101853.31;6213222;22;47618;-96
2021/08/25 02:58:59;;;;;;;;;5.50;5.50;;;;;17.96;55.01;101873.31;6213003;22;45395;-96
2021/08/25 03:01:24;;;;;;;;;6.50;4.00;;;;;17.79;54.75;101849.34;6213270;22;45435;-96
2021/08/25 03:03:55;;;;;;;;;4.50;4.50;;;;;17.65;55.33;101826.88;6188279;22;45334;-96
2021/08/25 03:06:21;;;;;;;;;4.00;4.00;;;;;17.75;55.01;101848.72;6214018;22;46970;-95
2021/08/25 03:08:56;;;;;;;;;2.75;1.50;;;;;17.78;55.16;101858.50;6213415;22;45370;-96
2021/08/25 03:11:22;;;;;;;;;5.25;4.00;;;;;17.53;55.33;101816.94;6213427;22;45315;-94
2021/08/25 03:13:50;;;;;;;;;6.75;6.00;;;;;17.83;54.99;101864.41;6188338;22;45350;-96
2021/08/25 03:16:15;;;;;;;;;7.50;4.00;;;;;17.58;55.35;101830.19;6212795;22;46716;-95
2021/08/25 03:18:41;;;;;;;;;5.00;5.00;;;;;17.88;55.43;101881.22;6188182;22;45192;-95
2021/08/25 03:21:14;;;;;;;;;5.50;5.50;;;;;17.64;55.63;101841.44;6212606;22;45235;-95
2021/08/25 03:23:40;;;;;;;;;7.00;5.00;;;;;17.34;55.60;101796.66;6213736;22;45180;-95
2021/08/25 03:26:16;;;;;;;;;;;;;;;;;;;;;
2021/08/25 03:28:44;;;;;;;;;6.00;6.00;;;;;17.31;55.91;101813.16;6213824;22;72931;-96
2021/08/25 03:31:11;;;;;;;;;5.00;3.75;;;;;17.23;56.03;101802.06;6213619;22;45500;-96
2021/08/25 03:33:42;;;;;;;;;6.25;5.75;;;;;17.51;56.10;101849.63;6213273;22;45458;-94
2021/08/25 03:36:08;;;;;;;;;6.00;5.00;;;;;17.39;56.17;101821.56;6213337;22;46899;-95
2021/08/25 03:38:46;;;;;;;;;7.25;4.50;;;;;17.46;56.42;101845.56;6213248;22;45311;-95
2021/08/25 03:41:11;;;;;;;;;6.75;4.50;;;;;17.17;56.41;101807.94;6213447;22;45378;-96
2021/08/25 03:43:42;;;;;;;;;6.25;5.00;;;;;17.40;56.58;101847.75;6213608;22;45295;-94
2021/08/25 03:46:36;;;;;;;;;8.00;6.00;;;;;17.12;56.59;101807.41;6214753;22;46816;-96
2021/08/25 03:49:02;;;;;;;;;6.25;5.25;;;;;17.32;56.34;101838.44;6215719;22;45049;-96
2021/08/25 03:51:55;;;;;;;;;;;;;;;;;;;;;
2021/08/25 03:54:24;;;;;;;;;5.00;4.00;;;;;17.08;56.80;101801.34;6215172;22;70145;-95
2021/08/25 03:56:52;;;;;;;;;4.00;4.00;;;;;17.05;56.78;101802.47;6213564;22;47906;-95
2021/08/25 03:59:18;;;;;;;;;9.00;6.00;;;;;17.29;56.58;101847.72;6213258;22;45361;-95
2021/08/25 04:01:46;;;;;;;;;5.50;5.50;;;;;17.33;56.91;101857.34;6212921;22;45342;-95
2021/08/25 04:04:24;;;;;;;;;;;;;;;;;;;;;
2021/08/25 04:07:00;;;;;;;;;5.50;5.00;;;;;16.93;56.82;101797.94;6208257;22;74887;-94
2021/08/25 04:09:49;;;;;;;;;6.75;5.25;;;;;17.35;57.09;101868.97;6214460;22;45631;-95
2021/08/25 04:12:13;;;;;;;;;5.00;5.00;;;;;17.21;56.93;101850.16;6213015;22;45345;-96
2021/08/25 04:14:39;;;;;;;;;6.75;6.75;;;;;17.20;57.02;101857.41;6187764;22;45331;-96
2021/08/25 04:17:08;;;;;;;;;6.25;6.00;;;;;16.90;57.36;101811.72;6212725;22;46837;-95
2021/08/25 04:19:34;;;;;;;;;7.00;6.00;;;;;16.88;57.11;101794.69;6187624;22;45189;-96
2021/08/25 04:22:02;;;;;;;;;4.75;4.00;;;;;17.38;57.35;101890.44;6212812;22;45229;-95
2021/08/25 04:24:30;;;;;;;;;10.75;6.00;;;;;17.05;57.42;101837.75;6207556;22;45385;-95
2021/08/25 04:26:56;;;;;;;;;6.25;4.25;;;;;17.08;57.38;101840.22;6208015;22;46662;-95
2021/08/25 04:29:24;;;;;;;;;4.75;4.50;;;;;17.03;57.59;101839.69;6207440;22;45185;-95
2021/08/25 04:31:53;;;;;;;;;5.50;4.25;;;;;17.14;57.33;101857.00;6208001;22;45161;-95
2021/08/25 04:34:21;;;;;;;;;5.00;4.00;;;;;17.01;57.53;101833.50;6208147;22;45440;-95
2021/08/25 04:36:47;;;;;;;;;9.00;6.00;;;;;17.15;57.72;101864.16;6208304;22;46611;-95
2021/08/25 04:39:16;;;;;;;;;6.00;6.00;;;;;16.79;57.93;101805.28;6207794;22;45270;-95
2021/08/25 04:41:44;;;;;;;;;8.00;5.25;;;;;16.85;57.70;101806.66;6207470;22;45304;-96
2021/08/25 04:44:10;;;;;;;;;5.50;4.25;;;;;16.83;57.69;101802.31;6207741;22;45265;-95
2021/08/25 04:46:35;;;;;;;;;5.25;4.00;;;;;16.79;57.68;101791.72;6207692;22;47065;-96
2021/08/25 04:49:03;;;;;;;;;8.00;5.50;;;;;16.79;57.78;101798.97;6207300;22;45166;-95
2021/08/25 04:51:29;;;;;;;;;5.25;5.25;;;;;16.80;57.41;101803.41;6207855;22;45247;-94
2021/08/25 04:53:54;;;;;;;;;7.75;7.25;;;;;16.76;57.79;101802.78;6208075;22;45493;-95
2021/08/25 04:56:20;;;;;;;;;7.50;7.00;;;;;17.10;57.71;101856.38;6207943;22;46814;-96
2021/08/25 04:58:45;;;;;;;;;5.25;5.25;;;;;16.97;57.70;101842.84;6207662;22;45419;-95
2021/08/25 05:01:14;;;;;;;;;5.00;5.00;;;;;17.10;57.69;101859.94;6207894;22;45272;-94
2021/08/25 05:03:39;;;;;;;;;4.25;4.25;;;;;16.92;57.92;101818.75;6207985;22;45371;-94
2021/08/25 05:06:09;;;;;;;;;5.75;4.50;;;;;17.00;57.90;101839.06;6207214;22;46548;-95
2021/08/25 05:08:35;;;;;;;;;7.00;5.75;;;;;16.69;58.24;101787.06;6207636;22;45116;-95
2021/08/25 05:11:00;;;;;;;;;8.00;6.00;;;;;16.72;57.82;101801.25;6207668;22;45296;-95
2021/08/25 05:13:26;;;;;;;;;6.75;5.25;;;;;17.29;58.02;101907.41;6207473;22;45315;-94
2021/08/25 05:15:54;;;;;;;;;9.75;5.50;;;;;16.72;58.21;101805.84;6207432;22;46649;-94
2021/08/25 05:18:20;;;;;;;;;4.00;4.00;;;;;16.72;57.99;101800.41;6206819;22;45374;-96
2021/08/25 05:20:45;;;;;;;;;6.75;6.00;;;;;17.13;58.04;101874.25;6207271;22;45203;-96
2021/08/25 05:23:11;;;;;;;;;4.25;4.25;;;;;16.82;58.05;101820.44;6211031;22;45150;-95
2021/08/25 05:25:37;;;;;;;;;6.25;6.25;;;;;16.90;58.09;101833.44;6211911;22;48102;-95
2021/08/25 05:28:02;;;;;;;;;6.75;6.75;;;;;16.62;58.10;101783.97;6212613;22;45512;-95
2021/08/25 05:30:28;;;;;;;;;5.25;4.25;;;;;16.65;58.28;101800.84;6212551;22;45186;-95
2021/08/25 05:32:54;;;;;;;;;5.50;5.50;;;;;16.64;58.28;101803.69;6212483;22;45602;-95
2021/08/25 05:35:21;;;;;;;;;6.25;4.75;;;;;16.69;58.22;101812.34;6212240;22;47077;-96
2021/08/25 05:37:48;;;;;;;;;8.00;5.75;;;;;16.57;58.30;101802.41;6186888;22;45732;-94
2021/08/25 05:40:14;;;;;;;;;6.00;5.00;;;;;16.60;58.20;101808.44;6212498;22;45458;-95
2021/08/25 05:42:45;;;;;;;;;5.00;5.00;;;;;16.92;58.50;101864.88;6212218;22;45423;-95
2021/08/25 05:45:12;;;;;;;;;5.75;5.00;;;;;17.09;58.42;101896.22;6212136;22;46798;-94
2021/08/25 05:47:39;;;;;;;;;11.50;7.25;;;;;17.14;58.46;101904.03;6212514;22;45388;-94
2021/08/25 05:50:06;;;;;;;;;4.00;4.00;;;;;16.65;58.61;101817.13;6212132;22;45390;-94
2021/08/25 05:52:35;;;;;;;;;4.75;4.25;;;;;16.88;58.59;101866.06;6212374;22;45191;-95
2021/08/25 05:55:00;;;;;;;;;5.00;5.00;;;;;16.57;58.70;101813.25;6211578;22;47910;-95
2021/08/25 05:57:26;;;;;;;;;8.00;6.00;;;;;16.79;58.41;101850.50;6212312;22;45236;-95
2021/08/25 05:59:52;;;;;;;;;6.50;5.50;;;;;16.79;58.83;101851.38;6212253;22;45386;-95
2021/08/25 06:02:20;;;;;;;;;6.75;6.00;;;;;16.80;58.43;101849.50;6212210;22;45355;-95
2021/08/25 06:04:48;;;;;;;;;5.75;5.25;;;;;16.95;58.66;101885.53;6211960;22;46791;-96
2021/08/25 06:07:14;;;;;;;;;8.25;7.50;;;;;16.99;58.64;101894.31;6211809;22;45272;-95
2021/08/25 06:09:39;;;;;;;;;7.50;7.25;;;;;16.51;58.86;101822.69;6211778;22;45272;-95
2021/08/25 06:12:05;;;;;;;;;6.00;6.00;;;;;16.49;58.79;101813.81;6187154;22;45139;-94
2021/08/25 06:14:31;;;;;;;;;5.50;5.00;;;;;16.83;58.80;101868.28;6211657;22;47746;-95
2021/08/25 06:16:57;;;;;;;;;8.50;7.50;;;;;16.96;58.93;101892.66;6212211;22;45342;-95
2021/08/25 06:19:23;;;;;;;;;9.00;7.00;;;;;17.08;58.80;101924.34;6211678;22;45387;-95
2021/08/25 06:21:49;;;;;;;;;6.00;6.00;;;;;16.54;58.84;101835.16;6211680;22;45386;-94
2021/08/25 06:24:15;;;;;;;;;7.50;6.50;;;;;17.01;58.76;101923.03;6211243;22;46576;-94
2021/08/25 06:26:44;;;;;;;;;6.50;5.75;;;;;16.68;58.96;101864.84;6211516;22;45213;-94
2021/08/25 06:29:10;;;;;;;;;6.75;5.25;;;;;16.50;58.97;101829.09;6211914;22;45227;-95
2021/08/25 06:31:36;;;;;;;;;6.50;6.50;;;;;16.91;59.20;101882.13;6211982;22;45367;-95
2021/08/25 06:34:02;;;;;;;;;5.50;5.50;;;;;16.82;59.17;101858.41;6211436;22;47371;-95
2021/08/25 06:36:27;;;;;;;;;7.00;6.00;;;;;17.02;58.92;101883.22;6211939;22;45395;-95
2021/08/25 06:38:53;;;;;;;;;8.25;6.00;;;;;17.15;58.70;101904.88;6212037;22;45264;-95
2021/08/25 06:41:19;;;;;;;;;7.50;6.25;;;;;16.61;58.90;101812.91;6211689;22;45402;-95
2021/08/25 06:43:44;;;;;;;;;6.75;6.00;;;;;16.86;58.71;101850.91;6186066;22;46631;-95
2021/08/25 06:46:10;;;;;;;;;6.00;6.00;;;;;16.96;58.84;101868.25;6186604;22;45372;-95
2021/08/25 06:48:38;;;;;;;;;6.75;6.75;;;;;16.72;59.11;101813.97;6211953;22;45324;-96
2021/08/25 06:51:04;;;;;;;;;7.25;5.25;;;;;16.93;58.91;101861.19;6212023;22;45095;-94
2021/08/25 06:53:31;;;;;;;;;6.75;6.50;;;;;17.27;58.81;101906.66;6211385;22;46872;-94
2021/08/25 06:55:57;;;;;;;;;8.50;8.50;;;;;17.22;58.47;101882.59;6211824;22;45537;-95
2021/08/25 06:58:26;;;;;;;;;6.50;5.50;;;;;17.17;58.47;101871.19;6187925;22;45358;-95
2021/08/25 07:00:52;;;;;;;;;6.50;6.00;;;;;16.92;58.37;101823.34;6188650;22;45145;-94
2021/08/25 07:03:18;;;;;;;;;6.00;6.00;;;;;17.25;58.69;101879.66;6213243;22;47429;-95
2021/08/25 07:05:43;;;;;;;;;6.25;6.25;;;;;17.44;58.73;101915.38;6213069;22;45154;-95
2021/08/25 07:08:09;;;;;;;;;6.50;6.00;;;;;17.28;58.95;101880.41;6213208;22;45198;-95
2021/08/25 07:10:35;;;;;;;;;7.00;6.00;;;;;17.30;58.82;101871.16;6188564;22;45479;-94
2021/08/25 07:13:02;;;;;;;;;7.00;6.25;;;;;17.15;58.13;101850.59;6213032;22;47583;-95
2021/08/25 07:15:27;;;;;;;;;8.25;7.00;;;;;17.33;57.95;101872.75;6213062;22;45504;-95
2021/08/25 07:17:56;;;;;;;;;8.00;4.50;;;;;17.37;58.05;101872.44;6213493;22;45283;-95
2021/08/25 07:20:22;;;;;;;;;10.50;8.25;;;;;17.38;58.09;101874.13;6213292;22;45114;-95
2021/08/25 07:22:47;;;;;;;;;8.50;8.50;;;;;17.22;58.18;101832.88;6212828;22;47553;-95
2021/08/25 07:25:13;;;;;;;;;9.00;6.75;;;;;17.71;58.13;101902.41;6213273;22;45224;-95
2021/08/25 07:27:39;;;;;;;;;8.50;7.00;;;;;17.62;57.94;101877.81;6213352;22;45148;-95
2021/08/25 07:30:09;;;;;;;;;6.00;6.00;;;;;17.30;57.74;101816.88;6213081;22;45206;-95
2021/08/25 07:32:44;;;;;;;;;8.00;6.75;;;;;17.56;57.72;101854.72;6213619;22;46855;-96
2021/08/25 07:35:20;;;;;;;;;7.25;6.25;;;;;17.35;57.98;101813.78;6214082;22;45335;-96
2021/08/25 07:37:48;;;;;;;;;7.00;7.00;;;;;17.74;58.05;101867.84;6219338;22;45244;-96
2021/08/25 07:40:26;;;;;;;;;;;;;;;;;;;;;
2021/08/25 07:43:22;;;;;;;;;;;;;;;;;;;;;
2021/08/25 07:46:34;;;;;;;;;;;;;;;;;;;;;
2021/08/25 07:50:05;;;;;;;;;;;;;;;;;;;;;
2021/08/25 07:52:47;;;;;;;;;9.50;9.00;;;;;17.71;57.48;101817.38;6163412;22;70157;-96
2021/08/25 07:55:13;;;;;;;;;9.25;7.50;;;;;18.25;57.39;101897.38;6214348;22;45410;-96
2021/08/25 07:57:54;;;;;;;;;7.00;7.00;;;;;18.17;57.14;101868.06;6213179;22;45358;-96
2021/08/25 08:00:37;;;;;;;;;11.50;8.25;;;;;17.93;57.30;101802.94;6214389;22;45194;-96
2021/08/25 08:03:16;;;;;;;;;;;;;;;;;;;;;
2021/08/25 08:05:50;;;;;;;;;7.75;6.75;;;;;18.16;56.88;101801.16;6213859;22;75384;-95
2021/08/25 08:08:17;;;;;;;;;9.00;6.00;;;;;18.55;56.98;101837.94;6214430;22;45426;-96
2021/08/25 08:10:43;;;;;;;;;7.75;7.50;;;;;18.46;56.82;101812.34;6213735;22;46126;-95
2021/08/25 08:13:18;;;;;;;;;8.00;6.00;;;;;18.47;56.60;101782.31;6192253;22;45383;-95
2021/08/25 08:16:17;;;;;;;;;6.50;6.00;;;;;18.99;55.87;101848.88;6217590;22;45375;-96
2021/08/25 08:21:51;;;;;;;;;7.75;6.25;;;;;19.36;55.56;101857.53;6217308;22;45381;-96
2021/08/25 12:15:39;;;;;;;;;;;;;;;;;;;;;
2021/08/25 12:22:19;;;;;;;;;;;;;;;;;;;;;
2021/08/25 12:25:41;;;;;;;;;;;;;;;;;;;;;
2021/08/25 12:33:22;;;;;;;;;;;;;;;;;;;;;
2021/08/25 12:40:19;;;;;;;;;;;;;;;;;;;;;
2021/08/25 13:01:28;;;;;;;;;;;;;;;;;;;;;
2021/08/25 13:11:30;;;;;;;;;7.00;7.00;;;;;23.14;43.45;101620.97;6147657;23;45425;-96
2021/08/25 13:14:32;;;;;;;;;10.75;8.00;;;;;23.09;43.30;101610.50;6117790;23;44807;-96
2021/08/25 13:23:54;;;;;;;;;;;;;;;;;;;;;
2021/08/25 13:41:03;;;;;;;;;;;;;;;;;;;;;
2021/08/25 13:44:46;;;;;;;;;;;;;;;;;;;;;
2021/08/25 13:47:30;;;;;;;;;;;;;;;;;;;;;
2021/08/25 13:50:49;;;;;;;;;;;;;;;;;;;;;
2021/08/25 13:59:52;;;;;;;;;9.25;7.50;;;;;23.08;42.82;101561.34;5808338;24;44887;-96
2021/08/25 14:03:10;;;;;;;;;7.25;7.25;;;;;23.19;42.75;101578.38;5799244;24;46678;-96
2021/08/25 14:06:07;;;;;;;;;;;;;;;;;;;;;
2021/08/25 14:09:06;;;;;;;;;;;;;;;;;;;;;
2021/08/25 14:12:17;;;;;;;;;9.50;7.25;;;;;23.12;42.47;101549.88;5965600;23;70154;-96
2021/08/25 14:44:56;;;;;;;;;;;;;;;;;;;;;
2021/08/25 14:48:33;;;;;;;;;;;;;;;;;;;;;
2021/08/25 14:55:30;;;;;;;;;;;;;;;;;;;;;
2021/08/25 14:58:21;;;;;;;;;;;;;;;;;;;;;
2021/08/25 16:00:23;;;;;;;;;;;;;;;;;;;;;
2021/08/25 16:03:14;;;;;;;;;;;;;;;;;;;;;
2021/08/25 16:06:39;;;;;;;;;8.00;8.00;;;;;23.32;42.66;101462.00;6257519;22;72094;-96
2021/08/25 20:16:59;;;;;;;;;;;;;;;;;;;;;
2021/08/25 20:19:55;;;;;;;;;9.00;8.75;;;;;21.96;46.21;101553.59;6280180;22;68903;-96
2021/08/25 20:22:56;;;;;;;;;;;;;;;;;;;;;
2021/08/25 20:26:05;;;;;;;;;;;;;;;;;;;;;
2021/08/25 20:28:37;;;;;;;;;7.00;7.00;;;;;21.66;46.40;101523.75;6282304;22;71944;-96
2021/08/25 20:35:19;;;;;;;;;;;;;;;;;;;;;
2021/08/25 20:38:17;;;;;;;;;;;;;;;;;;;;;
2021/08/25 20:41:40;;;;;;;;;;;;;;;;;;;;;
2021/08/25 20:44:49;;;;;;;;;10.50;10.00;;;;;21.53;47.09;101528.69;6277934;22;44762;-96
2021/08/25 20:47:46;;;;;;;;;;;;;;;;;;;;;
2021/08/25 20:50:42;;;;;;;;;9.75;7.75;;;;;21.52;47.10;101527.81;6188298;23;74596;-96
2021/08/25 20:54:17;;;;;;;;;;;;;;;;;;;;;
2021/08/25 20:56:48;;;;;;;;;;;;;;;;;;;;;
2021/08/25 20:59:18;;;;;;;;;;;;;;;;;;;;;
2021/08/25 21:02:14;;;;;;;;;7.00;6.00;;;;;21.46;47.52;101544.81;6212559;22;74461;-96
2021/08/25 21:04:50;;;;;;;;;8.00;8.00;;;;;21.36;47.73;101528.50;6187976;22;45658;-96
2021/08/25 21:08:04;;;;;;;;;10.00;8.00;;;;;21.61;47.77;101577.13;6189964;22;45233;-96
2021/08/25 21:11:21;;;;;;;;;7.75;7.00;;;;;21.42;47.66;101545.28;6162905;22;45496;-96
2021/08/25 21:20:53;;;;;;;;;;;;;;;;;;;;;
2021/08/25 21:23:59;;;;;;;;;9.75;6.50;;;;;21.16;47.68;101518.66;6202621;22;69281;-96
2021/08/25 21:26:58;;;;;;;;;8.50;7.25;;;;;21.70;48.14;101613.59;6219610;22;47109;-96
2021/08/25 21:29:55;;;;;;;;;11.75;8.25;;;;;21.31;47.82;101558.13;6243233;22;45226;-96
2021/08/25 21:32:58;;;;;;;;;;;;;;;;;;;;;
2021/08/25 21:36:12;;;;;;;;;;;;;;;;;;;;;
2021/08/25 21:38:59;;;;;;;;;9.00;8.00;;;;;20.99;47.91;101526.63;6183241;23;75245;-96
2021/08/25 21:41:36;;;;;;;;;;;;;;;;;;;;;
2021/08/25 21:44:08;;;;;;;;;8.25;7.00;;;;;20.95;48.23;101518.88;6183683;23;67710;-96
2021/08/25 21:46:43;;;;;;;;;8.50;7.00;;;;;20.86;48.27;101505.16;6158687;23;45120;-96
2021/08/25 21:49:09;;;;;;;;;8.50;8.50;;;;;20.87;48.59;101506.88;6158347;23;47178;-96
2021/08/25 21:51:38;;;;;;;;;6.50;6.00;;;;;21.13;48.10;101549.00;6159685;23;45155;-96
2021/08/25 21:54:16;;;;;;;;;;;;;;;;;;;;;
2021/08/25 21:56:42;;;;;;;;;8.50;8.50;;;;;21.16;48.30;101567.81;6244400;22;69489;-96
2021/08/25 22:00:04;;;;;;;;;9.75;9.00;;;;;20.83;48.40;101524.53;6244865;22;47039;-96
2021/08/25 22:02:55;;;;;;;;;;;;;;;;;;;;;
2021/08/25 22:05:51;;;;;;;;;10.50;9.50;;;;;20.95;48.75;101547.06;6243823;22;68163;-96
2021/08/25 22:08:29;;;;;;;;;;;;;;;;;;;;;
2021/08/25 22:11:04;;;;;;;;;8.75;6.25;;;;;20.99;48.79;101567.56;6307914;22;74191;-96
2021/08/25 22:14:19;;;;;;;;;6.75;6.75;;;;;20.87;48.77;101557.84;6280244;22;45633;-96
2021/08/25 22:17:09;;;;;;;;;;;;;;;;;;;;;
2021/08/25 22:19:51;;;;;;;;;;;;;;;;;;;;;
2021/08/25 22:22:18;;;;;;;;;8.00;8.00;;;;;20.70;48.94;101543.91;6245306;22;74611;-96
2021/08/25 22:24:52;;;;;;;;;9.75;6.75;;;;;20.90;48.92;101579.41;6244616;22;45548;-96
2021/08/25 22:27:31;;;;;;;;;8.75;8.75;;;;;20.50;49.18;101520.44;6272621;22;45503;-96
2021/08/25 22:30:24;;;;;;;;;;;;;;;;;;;;;
2021/08/25 22:33:23;;;;;;;;;10.00;9.00;;;;;20.42;49.31;101516.53;6247540;22;75287;-96
2021/08/25 22:36:01;;;;;;;;;7.75;7.75;;;;;20.47;49.54;101523.44;6270520;22;45323;-96
2021/08/25 22:50:30;;;;;;;;;;;;;;;;;;;;;
2021/08/25 23:48:35;;;;;;;;;;;;;;;;;;;;;
2021/08/25 23:51:52;;;;;;;;;12.75;12.75;;;;;19.68;56.91;101618.72;6354034;22;68189;-96
2021/08/25 23:55:01;;;;;;;;;;;;;;;;;;;;;
2021/08/25 23:57:51;;;;;;;;;15.50;13.50;;;;;19.28;57.08;101562.41;6346429;22;75289;-96
